Latest Weather Observations for Dalby

IDQ60801

Issued at 7:32 pm EST Tuesday 28 March 2017 (issued every 30 minutes, with the page automatically refreshed every 10 minutes)

About weather observations | Map of weather stations | Latest weather observations for QLD | Other Formats
Station Details ID: 041522 Name: DALBY AIRPORT Lat: -27.16 Lon: 151.26 Height: 343.9 m
Data from the previous 72 hours. | See also: Recent months at Dalby
Date/Time
EST
Temp
°C
App
Temp
°C
Dew
Point
°C
Rel
Hum
%
Delta-T
°C
Wind Press
QNH
hPa
Press
MSL
hPa
Rain since
9am
mm
Dir  Spd
km/h
Gust
km/h
Spd
kts
Gust
kts
28/07:30pm 25.2 23.9 15.8 56 5.8 E 17 20 9 11 1013.4 1011.6 0.0
28/07:00pm 25.5 24.2 15.8 55 6.0 E 17 20 9 11 1013.2 1011.4 0.0
28/06:30pm 26.2 24.5 14.6 48 7.0 E 17 19 9 10 1012.8 1011.0 0.0
28/06:00pm 27.6 24.8 14.3 44 8.1 E 22 28 12 15 1012.3 1010.5 0.0
28/05:30pm 28.6 26.0 13.7 40 9.0 ENE 20 28 11 15 1012.1 1010.3 0.0
28/05:00pm 29.4 26.1 12.8 36 9.9 E 22 28 12 15 1012.0 1010.2 0.0
28/04:30pm 30.4 27.5 12.8 34 10.6 ENE 20 24 11 13 1011.5 1009.8 0.0
28/04:00pm 31.0 27.6 12.4 32 11.1 ENE 22 32 12 17 1011.2 1009.4 0.0
28/03:30pm 31.5 27.7 12.3 31 11.5 E 24 32 13 17 1011.1 1009.3 0.0
28/03:00pm 32.0 28.5 12.3 30 11.8 E 22 32 12 17 1011.2 1009.4 0.0
28/02:30pm 32.5 28.8 11.6 28 12.4 ESE 22 32 12 17 1011.3 1009.6 0.0
28/02:00pm 32.7 29.6 12.3 28 12.3 E 20 32 11 17 1011.4 1009.7 0.0
28/01:30pm 32.9 29.8 10.3 25 13.2 ESE 17 26 9 14 1011.8 1010.0 0.0
28/01:00pm 32.4 28.5 8.6 23 13.5 E 19 30 10 16 1012.2 1010.4 0.0
28/12:30pm 31.7 29.9 12.0 30 11.7 E 13 20 7 11 1012.7 1010.9 0.0
28/12:00pm 30.9 28.5 12.8 33 10.9 ENE 17 28 9 15 1013.1 1011.3 0.0
28/11:30am 30.4 29.2 14.1 37 10.0 ENE 13 22 7 12 1013.6 1011.8 0.0
28/11:00am 29.3 27.0 13.1 37 9.7 E 17 24 9 13 1014.2 1012.5 0.0
28/10:30am 28.7 26.1 13.8 40 9.0 ENE 20 32 11 17 1014.6 1012.9 0.0
28/10:00am 28.3 26.8 15.2 44 8.1 E 17 24 9 13 1014.9 1013.1 0.0
28/09:30am 27.2 25.6 14.9 47 7.5 ENE 17 26 9 14 1015.2 1013.4 0.0
28/09:00am 26.2 25.3 15.9 53 6.4 ENE 15 22 8 12 1015.3 1013.5 0.0
28/08:30am 25.0 23.8 17.0 61 5.0 E 19 24 10 13 1015.1 1013.3 0.0
28/08:00am 23.7 22.4 16.7 65 4.4 ENE 19 24 10 13 1014.9 1013.1 0.0
28/07:30am 22.4 20.7 17.1 72 3.3 ENE 22 28 12 15 1014.6 1012.9 0.0
28/07:00am 21.2 19.8 17.0 77 2.6 ENE 20 28 11 15 1014.2 1012.5 0.0
28/06:30am 19.5 18.6 16.9 85 1.6 E 17 20 9 11 1013.9 1012.2 0.0
28/06:00am 18.8 17.2 16.6 87 1.3 E 20 24 11 13 1013.6 1011.8 0.0
28/05:30am 18.5 17.1 16.5 88 1.2 ESE 19 22 10 12 1013.6 1011.8 0.0
28/05:00am 18.7 17.4 16.7 88 1.2 ESE 19 24 10 13 1013.3 1011.5 0.0
28/04:30am 18.7 17.7 16.7 88 1.2 SE 17 22 9 12 1012.8 1011.0 0.0
28/04:00am 18.9 17.6 16.7 87 1.3 SE 19 24 10 13 1012.6 1010.8 0.0
28/03:30am 19.0 17.5 16.8 87 1.3 SE 20 30 11 16 1012.4 1010.6 0.0
28/03:00am 19.2 18.4 17.0 87 1.4 ESE 17 22 9 12 1012.6 1010.8 0.0
28/02:30am 19.5 18.6 16.9 85 1.6 SE 17 20 9 11 1012.9 1011.1 0.0
28/02:00am 19.8 19.0 17.2 85 1.6 SE 17 20 9 11 1013.2 1011.4 0.0
28/01:30am 20.1 19.3 17.1 83 1.9 SE 17 20 9 11 1013.7 1011.9 0.0
28/01:00am 19.9 19.8 16.9 83 1.8 ESE 13 17 7 9 1013.8 1012.0 0.0
28/12:30am 20.4 20.3 17.0 81 2.1 E 13 17 7 9 1014.0 1012.3 0.0
28/12:00am 20.7 20.7 17.1 80 2.2 E 13 15 7 8 1014.4 1012.7 0.0
 
Date/Time
EST
Temp
°C
App
Temp
°C
Dew
Point
°C
Rel
Hum
%
Delta-T
°C
Wind Press
QNH
hPa
Press
MSL
hPa
Rain since
9am
mm
Dir  Spd
km/h
Gust
km/h
Spd
kts
Gust
kts
27/11:30pm 21.1 21.4 17.1 78 2.5 ESE 11 15 6 8 1014.7 1013.0 0.0
27/11:00pm 21.7 21.2 16.9 74 3.0 E 15 17 8 9 1014.7 1013.0 0.0
27/10:30pm 22.2 21.2 16.7 71 3.4 ENE 17 20 9 11 1014.7 1013.0 0.0
27/10:00pm 22.8 20.6 16.8 69 3.7 ENE 24 30 13 16 1015.0 1013.2 0.0
27/09:30pm 23.2 21.8 17.0 68 3.9 ENE 20 26 11 14 1014.9 1013.1 0.0
27/09:00pm 23.8 22.4 17.1 66 4.2 ENE 20 28 11 15 1014.9 1013.1 0.0
27/08:30pm 24.3 22.7 16.6 62 4.8 E 20 26 11 14 1014.7 1013.0 0.0
27/08:00pm 24.5 23.3 16.2 60 5.1 E 17 20 9 11 1014.4 1012.7 0.0
27/07:30pm 25.5 23.7 16.1 56 5.8 E 20 26 11 14 1014.1 1012.4 0.0
27/07:00pm 25.6 24.3 15.9 55 6.0 E 17 22 9 12 1013.8 1012.0 0.0
27/06:30pm 26.6 24.4 15.0 49 7.1 E 20 26 11 14 1013.4 1011.6 0.0
27/06:00pm 27.4 25.3 15.1 47 7.6 E 20 28 11 15 1012.9 1011.1 0.0
27/05:30pm 28.3 25.8 15.2 44 8.1 E 22 28 12 15 1012.6 1010.8 0.0
27/05:00pm 29.4 26.3 15.5 43 8.7 E 26 33 14 18 1012.3 1010.5 0.0
27/04:30pm 29.2 26.9 14.2 40 9.2 ESE 19 28 10 15 1012.3 1010.5 0.0
27/04:00pm 29.9 26.8 14.4 38 9.5 SE 24 30 13 16 1012.2 1010.4 0.0
27/03:30pm 30.5 28.3 15.0 39 9.6 SE 20 26 11 14 1012.1 1010.3 0.0
27/03:00pm 31.0 29.4 15.0 38 10.0 SE 17 28 9 15 1012.3 1010.5 0.0
27/02:30pm 30.0 28.3 15.7 42 9.0 ESE 19 28 10 15 1012.4 1010.6 0.0
27/02:00pm 30.8 29.0 15.6 39 9.5 ESE 19 28 10 15 1012.7 1010.9 0.0
27/01:30pm 31.1 29.5 15.9 40 9.6 E 19 28 10 15 1012.9 1011.1 0.0
27/01:00pm 30.1 27.9 15.0 40 9.4 E 20 32 11 17 1013.4 1011.6 0.0
27/12:30pm 30.5 29.3 16.1 41 9.1 ENE 17 26 9 14 1013.9 1012.2 0.0
27/12:00pm 30.1 28.1 15.4 41 9.2 E 20 32 11 17 1014.4 1012.7 0.0
27/11:30am 29.6 28.0 16.1 44 8.5 E 19 28 10 15 1015.2 1013.4 0.0
27/11:00am 28.8 26.7 15.3 43 8.4 ENE 20 30 11 16 1015.6 1013.8 0.0
27/10:30am 28.4 27.2 17.6 52 6.9 E 20 32 11 17 1015.9 1014.1 0.0
27/10:00am 27.6 25.5 17.2 53 6.6 E 24 35 13 19 1016.2 1014.4 0.0
27/09:30am 27.1 24.9 17.0 54 6.4 E 24 35 13 19 1016.4 1014.6 0.0
27/09:00am 25.9 24.1 17.8 61 5.2 E 24 30 13 16 1016.5 1014.8 0.0
27/08:30am 25.6 23.9 18.0 63 4.9 E 24 33 13 18 1016.4 1014.6 0.0
27/08:00am 24.2 22.5 18.2 69 3.8 ENE 24 32 13 17 1016.3 1014.5 0.0
27/07:30am 23.3 22.8 18.6 75 3.0 E 19 24 10 13 1016.0 1014.2 0.0
27/07:00am 22.0 21.7 18.2 79 2.4 E 17 20 9 11 1015.6 1013.8 0.0
27/06:30am 20.7 21.1 18.1 85 1.6 ESE 13 15 7 8 1015.3 1013.5 0.0
27/06:00am 20.3 20.6 17.9 86 1.5 ESE 13 15 7 8 1015.1 1013.3 0.0
27/05:30am 20.2 20.8 17.8 86 1.5 ESE 11 15 6 8 1014.9 1013.1 0.0
27/05:00am 20.6 20.9 17.8 84 1.8 ESE 13 17 7 9 1014.7 1013.0 0.0
27/04:30am 20.8 20.8 18.0 84 1.8 E 15 19 8 10 1014.3 1012.6 0.0
27/04:00am 21.0 21.0 18.0 83 1.9 E 15 22 8 12 1014.2 1012.5 0.0
27/03:30am 21.3 21.3 18.1 82 2.0 E 15 20 8 11 1014.2 1012.5 0.0
27/03:00am 21.4 21.1 18.2 82 2.0 ESE 17 22 9 12 1014.3 1012.6 0.0
27/02:30am 21.4 21.9 18.4 83 1.9 ESE 13 15 7 8 1014.4 1012.7 0.0
27/02:00am 21.7 22.3 18.5 82 2.0 ESE 13 17 7 9 1014.5 1012.8 0.0
27/01:30am 22.0 22.1 18.4 80 2.3 ESE 15 19 8 10 1014.6 1012.9 0.0
27/01:00am 22.1 22.2 18.3 79 2.4 ESE 15 17 8 9 1015.0 1013.2 0.0
27/12:30am 22.8 22.8 18.1 75 3.0 ESE 15 19 8 10 1015.2 1013.4 0.0
27/12:00am 22.5 22.8 17.8 75 3.0 ESE 13 13 7 7 1015.4 1013.6 0.0
 
Date/Time
EST
Temp
°C
App
Temp
°C
Dew
Point
°C
Rel
Hum
%
Delta-T
°C
Wind Press
QNH
hPa
Press
MSL
hPa
Rain since
9am
mm
Dir  Spd
km/h
Gust
km/h
Spd
kts
Gust
kts
26/11:30pm 23.3 23.6 18.0 72 3.4 E 13 17 7 9 1015.6 1013.8 0.0
26/11:00pm 23.4 23.4 18.1 72 3.4 E 15 19 8 10 1015.6 1013.8 0.0
26/10:30pm 23.1 23.6 18.4 75 3.0 ESE 13 15 7 8 1015.7 1013.9 0.0
26/10:00pm 23.3 24.1 18.2 73 3.2 E 11 13 6 7 1015.6 1013.8 0.0
26/09:30pm 24.3 24.7 18.2 68 3.9 E 13 13 7 7 1015.5 1013.7 0.0
26/09:00pm 25.1 25.6 18.3 66 4.4 E 13 13 7 7 1015.3 1013.5 0.0
26/08:30pm 25.5 26.3 18.2 64 4.7 ESE 11 15 6 8 1015.1 1013.3 0.0
26/08:00pm 26.8 27.0 17.6 57 5.9 SE 13 17 7 9 1014.9 1013.1 0.0
26/07:30pm 27.6 26.6 17.5 54 6.4 SE 19 24 10 13 1014.3 1012.6 0.0
26/07:00pm 28.7 28.1 17.6 51 7.1 SSE 17 24 9 13 1013.9 1012.2 0.0
26/06:30pm 29.0 28.6 17.2 49 7.5 SE 15 20 8 11 1013.5 1011.7 0.0
26/06:00pm 29.8 28.5 16.9 45 8.2 SE 19 24 10 13 1013.1 1011.3 0.0
26/05:30pm 31.2 29.8 13.5 34 10.8 SSE 13 19 7 10 1012.6 1010.8 0.0
26/05:00pm 31.5 30.2 13.7 33 10.9 SE 13 20 7 11 1012.4 1010.6 0.0
26/04:30pm 31.8 29.3 14.0 34 10.9 S 20 26 11 14 1012.1 1010.3 0.0
26/04:00pm 31.6 29.9 14.7 36 10.5 S 17 22 9 12 1012.1 1010.3 0.0
26/03:30pm 32.2 31.2 13.4 32 11.5 SE 11 19 6 10 1012.2 1010.4 0.0
26/03:00pm 31.9 29.9 12.7 31 11.6 S 15 20 8 11 1012.3 1010.5 0.0
26/02:30pm 32.0 30.8 12.8 31 11.6 SE 11 19 6 10 1012.6 1010.8 0.0
26/02:00pm 31.7 29.6 13.5 33 11.1 S 17 24 9 13 1013.0 1011.2 0.0
26/01:30pm 31.2 30.3 14.8 37 10.2 SSE 13 24 7 13 1013.2 1011.4 0.0
26/01:00pm 30.6 29.1 14.3 37 10.0 SSE 15 22 8 12 1013.6 1011.8 0.0
26/12:30pm 30.3 29.0 13.6 36 10.1 S 13 22 7 12 1014.1 1012.4 0.0
26/12:00pm 30.1 30.4 17.9 48 7.9 ESE 13 20 7 11 1014.7 1013.0 0.0
26/11:30am 28.7 28.8 16.6 48 7.6 SE 11 15 6 8 1015.4 1013.6 0.0
26/11:00am 28.2 28.8 17.7 53 6.7 SSE 11 20 6 11 1016.0 1014.2 0.0
26/10:30am 26.8 27.7 16.7 54 6.4 SSE 7 20 4 11 1016.3 1014.5 0.0
26/10:00am 25.7 27.4 17.1 59 5.4 SE 4 9 2 5 1016.5 1014.8 0.0
26/09:30am 24.7 26.8 17.2 63 4.7 S 2 9 1 5 1016.7 1015.0 0.0
26/09:00am 23.5 24.9 17.3 68 3.9 SSW 6 13 3 7 1016.8 1015.1 0.0
26/08:30am 22.3 23.6 17.2 73 3.2 SSW 6 11 3 6 1016.7 1015.0 0.0
26/08:00am 21.3 22.7 17.3 78 2.5 WNW 6 9 3 5 1016.3 1014.5 0.0
26/07:30am 19.9 22.3 16.9 83 1.8 CALM 0 0 0 0 1016.2 1014.4 0.0
26/07:00am 18.3 20.3 16.1 87 1.3 CALM 0 0 0 0 1016.0 1014.2 0.0
26/06:30am 17.5 19.4 15.7 89 1.1 CALM 0 0 0 0 1015.7 1013.9 0.0
26/06:00am 17.1 17.1 15.3 89 1.1 NNE 9 9 5 5 1015.1 1013.3 0.0
26/05:30am 17.3 17.4 15.5 89 1.1 ENE 9 9 5 5 1015.0 1013.2 0.0
26/05:00am 17.5 17.6 15.5 88 1.2 ENE 9 9 5 5 1014.4 1012.7 0.0
26/04:30am 18.3 18.2 16.1 87 1.3 ENE 11 13 6 7 1014.3 1012.6 0.0
26/04:00am 18.7 18.4 16.5 87 1.3 E 13 17 7 9 1014.2 1012.5 0.0
26/03:30am 18.9 18.3 16.7 87 1.3 ESE 15 17 8 9 1014.3 1012.6 0.0
26/03:00am 18.8 18.6 16.8 88 1.2 ESE 13 15 7 8 1014.2 1012.5 0.0
26/02:30am 18.9 19.5 16.7 87 1.3 SE 9 13 5 7 1014.7 1013.0 0.0
26/02:00am 18.9 19.1 16.7 87 1.3 ESE 11 13 6 7 1014.5 1012.8 0.0
26/01:30am 19.1 19.3 16.7 86 1.5 ESE 11 13 6 7 1014.9 1013.1 0.0
26/01:00am 19.5 20.1 16.9 85 1.6 SE 9 11 5 6 1015.2 1013.4 0.0
26/12:30am 20.1 20.4 17.1 83 1.9 E 11 17 6 9 1015.4 1013.6 0.0
26/12:00am 20.4 20.4 17.2 82 2.0 E 13 17 7 9 1015.7 1013.9 0.0
 
Date/Time
EST
Temp
°C
App
Temp
°C
Dew
Point
°C
Rel
Hum
%
Delta-T
°C
Wind Press
QNH
hPa
Press
MSL
hPa
Rain since
9am
mm
Dir  Spd
km/h
Gust
km/h
Spd
kts
Gust
kts
25/11:30pm 20.8 21.0 17.6 82 2.0 E 13 19 7 10 1016.1 1014.3 0.0
25/11:00pm 21.1 21.6 17.5 80 2.2 ENE 11 15 6 8 1016.3 1014.5 0.0
25/10:30pm 21.7 21.1 17.5 77 2.6 ENE 17 22 9 12 1016.4 1014.6 0.0
25/10:00pm 22.0 20.8 17.4 75 2.9 ENE 20 28 11 15 1016.4 1014.6 0.0
25/09:30pm 22.3 21.4 17.7 75 2.9 ENE 19 26 10 14 1016.5 1014.8 0.0
25/09:00pm 21.6 21.7 17.4 77 2.6 E 13 17 7 9 1016.4 1014.6 0.0
25/08:30pm 22.4 23.3 16.7 70 3.5 NE 7 11 4 6 1016.1 1014.3 0.0
25/08:00pm 23.2 23.2 17.2 69 3.8 ENE 13 17 7 9 1015.8 1014.0 0.0

Other Formats:

Comma delimited format used in spreadsheet applications
http://www.bom.gov.au/fwo/IDQ60801/IDQ60801.94542.axf

JavaScript Object Notation format (JSON) in row-major order
http://www.bom.gov.au/fwo/IDQ60801/IDQ60801.94542.json